sensor_id;sensor_type;location;lat;lon;timestamp;temperature;humidity
10057;DHT22;5068;51.286;7.518;2023-07-13T00:00:47;14.70;54.60
10057;DHT22;5068;51.286;7.518;2023-07-13T00:02:20;14.70;54.00
10057;DHT22;5068;51.286;7.518;2023-07-13T00:03:53;14.70;54.00
10057;DHT22;5068;51.286;7.518;2023-07-13T00:05:26;14.60;54.00
10057;DHT22;5068;51.286;7.518;2023-07-13T00:06:59;14.60;54.10
10057;DHT22;5068;51.286;7.518;2023-07-13T00:08:32;14.60;54.20
10057;DHT22;5068;51.286;7.518;2023-07-13T00:10:06;14.50;54.20
10057;DHT22;5068;51.286;7.518;2023-07-13T00:11:41;14.50;54.20
10057;DHT22;5068;51.286;7.518;2023-07-13T00:13:16;14.40;54.20
10057;DHT22;5068;51.286;7.518;2023-07-13T00:14:49;14.40;54.20
10057;DHT22;5068;51.286;7.518;2023-07-13T00:16:21;14.40;54.20
10057;DHT22;5068;51.286;7.518;2023-07-13T00:17:55;14.30;54.30
10057;DHT22;5068;51.286;7.518;2023-07-13T00:19:28;14.30;54.30
10057;DHT22;5068;51.286;7.518;2023-07-13T00:21:01;14.20;54.30
10057;DHT22;5068;51.286;7.518;2023-07-13T00:22:37;14.20;54.30
10057;DHT22;5068;51.286;7.518;2023-07-13T00:24:13;14.20;54.30
10057;DHT22;5068;51.286;7.518;2023-07-13T00:25:48;14.20;54.40
10057;DHT22;5068;51.286;7.518;2023-07-13T00:27:23;14.10;54.40
10057;DHT22;5068;51.286;7.518;2023-07-13T00:28:59;14.10;54.40
10057;DHT22;5068;51.286;7.518;2023-07-13T00:30:33;14.10;54.40
10057;DHT22;5068;51.286;7.518;2023-07-13T00:32:08;14.10;54.40
10057;DHT22;5068;51.286;7.518;2023-07-13T00:33:41;14.00;54.40
10057;DHT22;5068;51.286;7.518;2023-07-13T00:35:15;13.90;54.40
10057;DHT22;5068;51.286;7.518;2023-07-13T00:36:48;13.90;54.40
10057;DHT22;5068;51.286;7.518;2023-07-13T00:38:21;13.90;54.40
10057;DHT22;5068;51.286;7.518;2023-07-13T00:39:53;13.90;54.50
10057;DHT22;5068;51.286;7.518;2023-07-13T00:41:26;13.80;54.40
10057;DHT22;5068;51.286;7.518;2023-07-13T00:42:59;13.80;54.50
10057;DHT22;5068;51.286;7.518;2023-07-13T00:44:34;13.80;54.60
10057;DHT22;5068;51.286;7.518;2023-07-13T00:46:13;13.70;54.60
10057;DHT22;5068;51.286;7.518;2023-07-13T00:47:47;13.70;54.90
10057;DHT22;5068;51.286;7.518;2023-07-13T00:49:23;13.70;54.40
10057;DHT22;5068;51.286;7.518;2023-07-13T00:51:00;13.60;54.50
10057;DHT22;5068;51.286;7.518;2023-07-13T00:52:36;13.60;54.60
10057;DHT22;5068;51.286;7.518;2023-07-13T00:54:15;13.60;54.60
10057;DHT22;5068;51.286;7.518;2023-07-13T00:55:53;13.50;54.60
10057;DHT22;5068;51.286;7.518;2023-07-13T00:57:28;13.50;54.70
10057;DHT22;5068;51.286;7.518;2023-07-13T00:59:02;13.50;54.70
10057;DHT22;5068;51.286;7.518;2023-07-13T01:00:40;13.40;54.80
10057;DHT22;5068;51.286;7.518;2023-07-13T01:02:12;13.40;54.80
10057;DHT22;5068;51.286;7.518;2023-07-13T01:03:46;13.40;54.80
10057;DHT22;5068;51.286;7.518;2023-07-13T01:05:21;13.30;55.40
10057;DHT22;5068;51.286;7.518;2023-07-13T01:06:55;13.30;55.10
10057;DHT22;5068;51.286;7.518;2023-07-13T01:08:30;13.30;55.00
10057;DHT22;5068;51.286;7.518;2023-07-13T01:10:06;13.30;55.00
10057;DHT22;5068;51.286;7.518;2023-07-13T01:11:40;13.20;55.00
10057;DHT22;5068;51.286;7.518;2023-07-13T01:13:13;13.30;55.10
10057;DHT22;5068;51.286;7.518;2023-07-13T01:14:46;13.20;55.00
10057;DHT22;5068;51.286;7.518;2023-07-13T01:16:25;13.20;55.00
10057;DHT22;5068;51.286;7.518;2023-07-13T01:17:58;13.10;55.00
10057;DHT22;5068;51.286;7.518;2023-07-13T01:19:35;13.10;55.00
10057;DHT22;5068;51.286;7.518;2023-07-13T01:21:12;13.10;55.00
10057;DHT22;5068;51.286;7.518;2023-07-13T01:22:44;13.10;55.00
10057;DHT22;5068;51.286;7.518;2023-07-13T01:24:18;13.00;54.90
10057;DHT22;5068;51.286;7.518;2023-07-13T01:25:52;13.00;55.00
10057;DHT22;5068;51.286;7.518;2023-07-13T01:27:26;13.00;55.20
10057;DHT22;5068;51.286;7.518;2023-07-13T01:28:59;12.90;55.10
10057;DHT22;5068;51.286;7.518;2023-07-13T01:30:33;12.90;55.20
10057;DHT22;5068;51.286;7.518;2023-07-13T01:32:08;12.90;55.90
10057;DHT22;5068;51.286;7.518;2023-07-13T01:33:42;12.80;55.20
10057;DHT22;5068;51.286;7.518;2023-07-13T01:35:15;12.80;55.30
10057;DHT22;5068;51.286;7.518;2023-07-13T01:36:50;12.80;55.30
10057;DHT22;5068;51.286;7.518;2023-07-13T01:38:25;12.70;55.30
10057;DHT22;5068;51.286;7.518;2023-07-13T01:39:59;12.70;55.30
10057;DHT22;5068;51.286;7.518;2023-07-13T01:41:32;12.70;55.30
10057;DHT22;5068;51.286;7.518;2023-07-13T01:43:05;12.70;55.40
10057;DHT22;5068;51.286;7.518;2023-07-13T01:44:37;12.70;55.50
10057;DHT22;5068;51.286;7.518;2023-07-13T01:46:12;12.60;55.40
10057;DHT22;5068;51.286;7.518;2023-07-13T01:47:54;12.60;56.10
10057;DHT22;5068;51.286;7.518;2023-07-13T01:49:27;12.50;55.40
10057;DHT22;5068;51.286;7.518;2023-07-13T01:51:00;12.60;55.60
10057;DHT22;5068;51.286;7.518;2023-07-13T01:52:33;12.50;55.50
10057;DHT22;5068;51.286;7.518;2023-07-13T01:54:07;12.50;55.50
10057;DHT22;5068;51.286;7.518;2023-07-13T01:55:39;12.50;55.60
10057;DHT22;5068;51.286;7.518;2023-07-13T01:57:12;12.40;55.60
10057;DHT22;5068;51.286;7.518;2023-07-13T01:58:45;12.40;55.70
10057;DHT22;5068;51.286;7.518;2023-07-13T02:00:18;12.30;55.70
10057;DHT22;5068;51.286;7.518;2023-07-13T02:01:53;12.40;55.90
10057;DHT22;5068;51.286;7.518;2023-07-13T02:03:27;12.30;55.80
10057;DHT22;5068;51.286;7.518;2023-07-13T02:05:01;12.30;55.90
10057;DHT22;5068;51.286;7.518;2023-07-13T02:06:35;12.20;55.80
10057;DHT22;5068;51.286;7.518;2023-07-13T02:08:08;12.20;55.80
10057;DHT22;5068;51.286;7.518;2023-07-13T02:09:42;12.20;55.80
10057;DHT22;5068;51.286;7.518;2023-07-13T02:11:14;12.20;55.80
10057;DHT22;5068;51.286;7.518;2023-07-13T02:12:48;12.20;55.80
10057;DHT22;5068;51.286;7.518;2023-07-13T02:14:21;12.10;55.80
10057;DHT22;5068;51.286;7.518;2023-07-13T02:15:54;12.10;55.70
10057;DHT22;5068;51.286;7.518;2023-07-13T02:17:27;12.10;55.80
10057;DHT22;5068;51.286;7.518;2023-07-13T02:19:00;12.10;55.90
10057;DHT22;5068;51.286;7.518;2023-07-13T02:20:33;12.00;56.00
10057;DHT22;5068;51.286;7.518;2023-07-13T02:22:06;12.00;56.00
10057;DHT22;5068;51.286;7.518;2023-07-13T02:23:40;12.00;56.00
10057;DHT22;5068;51.286;7.518;2023-07-13T02:25:13;12.00;56.10
10057;DHT22;5068;51.286;7.518;2023-07-13T02:26:46;12.00;56.10
10057;DHT22;5068;51.286;7.518;2023-07-13T02:28:19;11.90;56.10
10057;DHT22;5068;51.286;7.518;2023-07-13T02:29:54;11.90;56.10
10057;DHT22;5068;51.286;7.518;2023-07-13T02:31:26;11.90;56.10
10057;DHT22;5068;51.286;7.518;2023-07-13T02:32:59;11.90;56.10
10057;DHT22;5068;51.286;7.518;2023-07-13T02:34:32;11.80;56.10
10057;DHT22;5068;51.286;7.518;2023-07-13T02:36:05;11.80;56.10
10057;DHT22;5068;51.286;7.518;2023-07-13T02:37:38;11.80;56.30
10057;DHT22;5068;51.286;7.518;2023-07-13T02:39:14;11.80;56.30
10057;DHT22;5068;51.286;7.518;2023-07-13T02:40:47;11.70;56.30
10057;DHT22;5068;51.286;7.518;2023-07-13T02:42:19;11.70;56.30
10057;DHT22;5068;51.286;7.518;2023-07-13T02:43:52;11.70;56.30
10057;DHT22;5068;51.286;7.518;2023-07-13T02:45:24;11.70;56.30
10057;DHT22;5068;51.286;7.518;2023-07-13T02:46:58;11.70;56.30
10057;DHT22;5068;51.286;7.518;2023-07-13T02:48:30;11.70;56.30
10057;DHT22;5068;51.286;7.518;2023-07-13T02:50:13;11.60;56.30
10057;DHT22;5068;51.286;7.518;2023-07-13T02:51:46;11.70;56.40
10057;DHT22;5068;51.286;7.518;2023-07-13T02:53:19;11.60;56.30
10057;DHT22;5068;51.286;7.518;2023-07-13T02:54:53;11.60;56.30
10057;DHT22;5068;51.286;7.518;2023-07-13T02:56:28;11.60;56.30
10057;DHT22;5068;51.286;7.518;2023-07-13T02:58:02;11.60;56.30
10057;DHT22;5068;51.286;7.518;2023-07-13T02:59:36;11.50;56.20
10057;DHT22;5068;51.286;7.518;2023-07-13T03:01:10;11.50;56.30
10057;DHT22;5068;51.286;7.518;2023-07-13T03:02:44;11.50;56.40
10057;DHT22;5068;51.286;7.518;2023-07-13T03:04:18;11.40;56.40
10057;DHT22;5068;51.286;7.518;2023-07-13T03:05:58;11.40;56.40
10057;DHT22;5068;51.286;7.518;2023-07-13T03:07:39;11.40;56.70
10057;DHT22;5068;51.286;7.518;2023-07-13T03:09:13;11.40;56.60
10057;DHT22;5068;51.286;7.518;2023-07-13T03:10:59;11.40;56.80
10057;DHT22;5068;51.286;7.518;2023-07-13T03:12:35;11.30;56.60
10057;DHT22;5068;51.286;7.518;2023-07-13T03:14:12;11.30;56.30
10057;DHT22;5068;51.286;7.518;2023-07-13T03:15:48;11.30;56.40
10057;DHT22;5068;51.286;7.518;2023-07-13T03:17:21;11.30;57.20
10057;DHT22;5068;51.286;7.518;2023-07-13T03:18:54;11.20;56.60
10057;DHT22;5068;51.286;7.518;2023-07-13T03:20:27;11.20;56.70
10057;DHT22;5068;51.286;7.518;2023-07-13T03:21:59;11.20;56.60
10057;DHT22;5068;51.286;7.518;2023-07-13T03:23:33;11.20;56.60
10057;DHT22;5068;51.286;7.518;2023-07-13T03:25:07;11.10;56.60
10057;DHT22;5068;51.286;7.518;2023-07-13T03:26:42;11.10;56.70
10057;DHT22;5068;51.286;7.518;2023-07-13T03:28:15;11.10;56.70
10057;DHT22;5068;51.286;7.518;2023-07-13T03:29:48;11.10;56.70
10057;DHT22;5068;51.286;7.518;2023-07-13T03:31:29;11.10;57.00
10057;DHT22;5068;51.286;7.518;2023-07-13T03:33:07;11.00;56.80
10057;DHT22;5068;51.286;7.518;2023-07-13T03:34:40;11.00;56.70
10057;DHT22;5068;51.286;7.518;2023-07-13T03:36:16;11.00;56.70
10057;DHT22;5068;51.286;7.518;2023-07-13T03:37:52;11.10;57.00
10057;DHT22;5068;51.286;7.518;2023-07-13T03:39:25;11.00;56.80
10057;DHT22;5068;51.286;7.518;2023-07-13T03:41:00;10.90;56.80
10057;DHT22;5068;51.286;7.518;2023-07-13T03:42:34;10.90;57.00
10057;DHT22;5068;51.286;7.518;2023-07-13T03:44:08;10.90;57.10
10057;DHT22;5068;51.286;7.518;2023-07-13T03:45:40;10.90;57.20
10057;DHT22;5068;51.286;7.518;2023-07-13T03:47:14;10.80;57.20
10057;DHT22;5068;51.286;7.518;2023-07-13T03:48:47;10.80;57.20
10057;DHT22;5068;51.286;7.518;2023-07-13T03:50:21;10.80;57.30
10057;DHT22;5068;51.286;7.518;2023-07-13T03:51:54;10.80;57.20
10057;DHT22;5068;51.286;7.518;2023-07-13T03:53:27;10.80;57.20
10057;DHT22;5068;51.286;7.518;2023-07-13T03:54:59;10.80;57.20
10057;DHT22;5068;51.286;7.518;2023-07-13T03:56:32;10.70;57.30
10057;DHT22;5068;51.286;7.518;2023-07-13T03:58:24;10.70;57.30
10057;DHT22;5068;51.286;7.518;2023-07-13T04:00:10;10.70;57.70
10057;DHT22;5068;51.286;7.518;2023-07-13T04:01:49;10.70;57.20
10057;DHT22;5068;51.286;7.518;2023-07-13T04:03:22;10.70;57.20
10057;DHT22;5068;51.286;7.518;2023-07-13T04:04:57;10.70;57.40
10057;DHT22;5068;51.286;7.518;2023-07-13T04:06:30;10.70;57.40
10057;DHT22;5068;51.286;7.518;2023-07-13T04:08:04;10.70;57.50
10057;DHT22;5068;51.286;7.518;2023-07-13T04:09:38;10.60;57.50
10057;DHT22;5068;51.286;7.518;2023-07-13T04:11:11;10.60;57.50
10057;DHT22;5068;51.286;7.518;2023-07-13T04:12:43;10.60;57.70
10057;DHT22;5068;51.286;7.518;2023-07-13T04:14:18;10.60;57.80
10057;DHT22;5068;51.286;7.518;2023-07-13T04:15:51;10.50;57.70
10057;DHT22;5068;51.286;7.518;2023-07-13T04:17:25;10.50;57.80
10057;DHT22;5068;51.286;7.518;2023-07-13T04:18:58;10.50;58.00
10057;DHT22;5068;51.286;7.518;2023-07-13T04:20:32;10.50;58.00
10057;DHT22;5068;51.286;7.518;2023-07-13T04:22:05;10.50;58.40
10057;DHT22;5068;51.286;7.518;2023-07-13T04:23:39;10.50;58.00
10057;DHT22;5068;51.286;7.518;2023-07-13T04:25:11;10.50;58.00
10057;DHT22;5068;51.286;7.518;2023-07-13T04:26:44;10.40;58.10
10057;DHT22;5068;51.286;7.518;2023-07-13T04:28:17;10.40;58.20
10057;DHT22;5068;51.286;7.518;2023-07-13T04:29:51;10.40;58.30
10057;DHT22;5068;51.286;7.518;2023-07-13T04:31:24;10.40;58.40
10057;DHT22;5068;51.286;7.518;2023-07-13T04:32:57;10.40;58.40
10057;DHT22;5068;51.286;7.518;2023-07-13T04:34:30;10.40;58.60
10057;DHT22;5068;51.286;7.518;2023-07-13T04:36:04;10.40;58.60
10057;DHT22;5068;51.286;7.518;2023-07-13T04:37:41;10.40;58.80
10057;DHT22;5068;51.286;7.518;2023-07-13T04:39:14;10.40;58.90
10057;DHT22;5068;51.286;7.518;2023-07-13T04:40:47;10.40;59.00
10057;DHT22;5068;51.286;7.518;2023-07-13T04:42:20;10.40;59.20
10057;DHT22;5068;51.286;7.518;2023-07-13T04:43:54;10.40;59.20
10057;DHT22;5068;51.286;7.518;2023-07-13T04:45:29;10.40;59.30
10057;DHT22;5068;51.286;7.518;2023-07-13T04:47:03;10.30;59.40
10057;DHT22;5068;51.286;7.518;2023-07-13T04:48:37;10.30;59.50
10057;DHT22;5068;51.286;7.518;2023-07-13T04:50:13;10.30;60.40
10057;DHT22;5068;51.286;7.518;2023-07-13T04:51:50;10.30;60.00
10057;DHT22;5068;51.286;7.518;2023-07-13T04:53:24;10.40;60.00
10057;DHT22;5068;51.286;7.518;2023-07-13T04:54:57;10.40;60.00
10057;DHT22;5068;51.286;7.518;2023-07-13T04:56:30;10.40;60.10
10057;DHT22;5068;51.286;7.518;2023-07-13T04:58:03;10.40;60.30
10057;DHT22;5068;51.286;7.518;2023-07-13T04:59:36;10.40;60.60
10057;DHT22;5068;51.286;7.518;2023-07-13T05:01:10;10.40;60.70
10057;DHT22;5068;51.286;7.518;2023-07-13T05:02:44;10.40;61.00
10057;DHT22;5068;51.286;7.518;2023-07-13T05:04:17;10.50;61.20
10057;DHT22;5068;51.286;7.518;2023-07-13T05:05:58;10.50;61.30
10057;DHT22;5068;51.286;7.518;2023-07-13T05:07:31;10.50;61.90
10057;DHT22;5068;51.286;7.518;2023-07-13T05:09:05;10.50;62.10
10057;DHT22;5068;51.286;7.518;2023-07-13T05:10:39;10.60;61.40
10057;DHT22;5068;51.286;7.518;2023-07-13T05:12:12;10.60;61.60
10057;DHT22;5068;51.286;7.518;2023-07-13T05:13:44;10.60;61.80
10057;DHT22;5068;51.286;7.518;2023-07-13T05:15:18;10.70;62.20
10057;DHT22;5068;51.286;7.518;2023-07-13T05:16:54;10.70;62.60
10057;DHT22;5068;51.286;7.518;2023-07-13T05:18:29;10.80;63.50
10057;DHT22;5068;51.286;7.518;2023-07-13T05:20:03;10.80;63.60
10057;DHT22;5068;51.286;7.518;2023-07-13T05:21:37;10.90;64.00
10057;DHT22;5068;51.286;7.518;2023-07-13T05:23:10;11.00;64.70
10057;DHT22;5068;51.286;7.518;2023-07-13T05:24:43;11.00;65.00
10057;DHT22;5068;51.286;7.518;2023-07-13T05:26:15;11.10;65.40
10057;DHT22;5068;51.286;7.518;2023-07-13T05:27:48;11.20;65.60
10057;DHT22;5068;51.286;7.518;2023-07-13T05:29:20;11.30;65.80
10057;DHT22;5068;51.286;7.518;2023-07-13T05:30:54;11.40;65.80
10057;DHT22;5068;51.286;7.518;2023-07-13T05:32:28;11.50;65.80
10057;DHT22;5068;51.286;7.518;2023-07-13T05:34:02;11.60;66.00
10057;DHT22;5068;51.286;7.518;2023-07-13T05:35:35;11.70;65.80
10057;DHT22;5068;51.286;7.518;2023-07-13T05:37:08;11.80;65.70
10057;DHT22;5068;51.286;7.518;2023-07-13T05:38:42;12.00;65.60
10057;DHT22;5068;51.286;7.518;2023-07-13T05:40:14;12.10;65.30
10057;DHT22;5068;51.286;7.518;2023-07-13T05:41:47;12.20;65.10
10057;DHT22;5068;51.286;7.518;2023-07-13T05:43:20;12.30;65.20
10057;DHT22;5068;51.286;7.518;2023-07-13T05:44:53;12.40;65.20
10057;DHT22;5068;51.286;7.518;2023-07-13T05:46:25;12.50;64.70
10057;DHT22;5068;51.286;7.518;2023-07-13T05:48:00;12.70;64.70
10057;DHT22;5068;51.286;7.518;2023-07-13T05:49:32;12.80;64.40
10057;DHT22;5068;51.286;7.518;2023-07-13T05:51:05;12.90;64.10
10057;DHT22;5068;51.286;7.518;2023-07-13T05:52:38;13.00;63.80
10057;DHT22;5068;51.286;7.518;2023-07-13T05:54:11;13.10;63.70
10057;DHT22;5068;51.286;7.518;2023-07-13T05:55:45;13.20;63.60
10057;DHT22;5068;51.286;7.518;2023-07-13T05:57:21;13.30;63.20
10057;DHT22;5068;51.286;7.518;2023-07-13T05:58:55;13.40;63.00
10057;DHT22;5068;51.286;7.518;2023-07-13T06:00:29;13.50;62.80
10057;DHT22;5068;51.286;7.518;2023-07-13T06:02:01;13.60;62.50
10057;DHT22;5068;51.286;7.518;2023-07-13T06:03:36;13.60;62.40
10057;DHT22;5068;51.286;7.518;2023-07-13T06:05:09;13.70;62.20
10057;DHT22;5068;51.286;7.518;2023-07-13T06:06:42;13.80;62.00
10057;DHT22;5068;51.286;7.518;2023-07-13T06:08:15;13.90;61.90
10057;DHT22;5068;51.286;7.518;2023-07-13T06:09:48;14.00;61.80
10057;DHT22;5068;51.286;7.518;2023-07-13T06:11:23;14.00;61.60
10057;DHT22;5068;51.286;7.518;2023-07-13T06:12:59;14.20;61.60
10057;DHT22;5068;51.286;7.518;2023-07-13T06:14:31;14.20;61.70
10057;DHT22;5068;51.286;7.518;2023-07-13T06:16:05;14.30;61.20
10057;DHT22;5068;51.286;7.518;2023-07-13T06:17:38;14.40;61.00
10057;DHT22;5068;51.286;7.518;2023-07-13T06:19:13;14.40;60.60
10057;DHT22;5068;51.286;7.518;2023-07-13T06:20:46;14.50;60.50
10057;DHT22;5068;51.286;7.518;2023-07-13T06:22:19;14.60;60.40
10057;DHT22;5068;51.286;7.518;2023-07-13T06:23:52;14.60;60.00
10057;DHT22;5068;51.286;7.518;2023-07-13T06:25:26;14.70;59.90
10057;DHT22;5068;51.286;7.518;2023-07-13T06:26:59;14.70;59.80
10057;DHT22;5068;51.286;7.518;2023-07-13T06:28:33;14.80;59.60
10057;DHT22;5068;51.286;7.518;2023-07-13T06:30:07;14.80;59.60
10057;DHT22;5068;51.286;7.518;2023-07-13T06:31:42;14.90;59.60
10057;DHT22;5068;51.286;7.518;2023-07-13T06:33:14;15.00;59.50
10057;DHT22;5068;51.286;7.518;2023-07-13T06:34:49;15.00;59.20
10057;DHT22;5068;51.286;7.518;2023-07-13T06:36:23;15.00;59.00
10057;DHT22;5068;51.286;7.518;2023-07-13T06:37:56;15.10;59.00
10057;DHT22;5068;51.286;7.518;2023-07-13T06:39:30;15.10;59.00
10057;DHT22;5068;51.286;7.518;2023-07-13T06:41:02;15.20;59.00
10057;DHT22;5068;51.286;7.518;2023-07-13T06:42:37;15.20;58.90
10057;DHT22;5068;51.286;7.518;2023-07-13T06:44:10;15.20;58.90
10057;DHT22;5068;51.286;7.518;2023-07-13T06:45:45;15.30;58.70
10057;DHT22;5068;51.286;7.518;2023-07-13T06:47:20;15.30;59.10
10057;DHT22;5068;51.286;7.518;2023-07-13T06:48:53;15.30;58.50
10057;DHT22;5068;51.286;7.518;2023-07-13T06:50:27;15.40;58.50
10057;DHT22;5068;51.286;7.518;2023-07-13T06:52:01;15.40;58.50
10057;DHT22;5068;51.286;7.518;2023-07-13T06:53:34;15.40;58.50
10057;DHT22;5068;51.286;7.518;2023-07-13T06:55:07;15.50;58.40
10057;DHT22;5068;51.286;7.518;2023-07-13T06:56:41;15.50;58.30
10057;DHT22;5068;51.286;7.518;2023-07-13T06:58:15;15.50;58.20
10057;DHT22;5068;51.286;7.518;2023-07-13T06:59:49;15.50;58.30
10057;DHT22;5068;51.286;7.518;2023-07-13T07:01:23;15.60;58.30
10057;DHT22;5068;51.286;7.518;2023-07-13T07:02:56;15.70;58.30
10057;DHT22;5068;51.286;7.518;2023-07-13T07:04:28;15.70;58.20
10057;DHT22;5068;51.286;7.518;2023-07-13T07:06:12;15.80;58.10
10057;DHT22;5068;51.286;7.518;2023-07-13T07:07:46;15.80;58.00
10057;DHT22;5068;51.286;7.518;2023-07-13T07:09:20;15.90;58.20
10057;DHT22;5068;51.286;7.518;2023-07-13T07:10:53;15.90;58.10
10057;DHT22;5068;51.286;7.518;2023-07-13T07:12:26;16.00;58.00
10057;DHT22;5068;51.286;7.518;2023-07-13T07:13:59;16.10;57.90
10057;DHT22;5068;51.286;7.518;2023-07-13T07:15:31;16.20;57.70
10057;DHT22;5068;51.286;7.518;2023-07-13T07:17:04;16.20;57.60
10057;DHT22;5068;51.286;7.518;2023-07-13T07:18:37;16.30;57.50
10057;DHT22;5068;51.286;7.518;2023-07-13T07:20:11;16.30;57.50
10057;DHT22;5068;51.286;7.518;2023-07-13T07:21:45;16.40;57.50
10057;DHT22;5068;51.286;7.518;2023-07-13T07:23:18;16.40;57.30
10057;DHT22;5068;51.286;7.518;2023-07-13T07:24:50;16.50;57.10
10057;DHT22;5068;51.286;7.518;2023-07-13T07:26:24;16.60;57.00
10057;DHT22;5068;51.286;7.518;2023-07-13T07:28:01;16.60;56.80
10057;DHT22;5068;51.286;7.518;2023-07-13T07:29:36;16.70;56.70
10057;DHT22;5068;51.286;7.518;2023-07-13T07:31:21;16.80;56.70
10057;DHT22;5068;51.286;7.518;2023-07-13T07:32:56;16.80;56.60
10057;DHT22;5068;51.286;7.518;2023-07-13T07:34:31;16.90;56.50
10057;DHT22;5068;51.286;7.518;2023-07-13T07:36:04;16.90;56.30
10057;DHT22;5068;51.286;7.518;2023-07-13T07:37:42;17.00;56.30
10057;DHT22;5068;51.286;7.518;2023-07-13T07:39:18;17.00;56.10
10057;DHT22;5068;51.286;7.518;2023-07-13T07:40:50;17.00;56.00
10057;DHT22;5068;51.286;7.518;2023-07-13T07:42:26;17.10;56.00
10057;DHT22;5068;51.286;7.518;2023-07-13T07:43:59;17.10;55.70
10057;DHT22;5068;51.286;7.518;2023-07-13T07:45:32;17.20;55.80
10057;DHT22;5068;51.286;7.518;2023-07-13T07:47:05;17.20;55.80
10057;DHT22;5068;51.286;7.518;2023-07-13T07:48:38;17.30;55.70
10057;DHT22;5068;51.286;7.518;2023-07-13T07:50:12;17.30;55.50
10057;DHT22;5068;51.286;7.518;2023-07-13T07:51:44;17.40;55.50
10057;DHT22;5068;51.286;7.518;2023-07-13T07:53:18;17.50;55.40
10057;DHT22;5068;51.286;7.518;2023-07-13T07:54:51;17.50;55.30
10057;DHT22;5068;51.286;7.518;2023-07-13T07:56:26;17.60;55.30
10057;DHT22;5068;51.286;7.518;2023-07-13T07:58:03;17.60;55.50
10057;DHT22;5068;51.286;7.518;2023-07-13T07:59:56;17.70;55.40
10057;DHT22;5068;51.286;7.518;2023-07-13T08:01:33;17.80;55.20
10057;DHT22;5068;51.286;7.518;2023-07-13T08:03:08;17.90;55.00
10057;DHT22;5068;51.286;7.518;2023-07-13T08:04:45;17.90;54.80
10057;DHT22;5068;51.286;7.518;2023-07-13T08:06:20;18.00;54.70
10057;DHT22;5068;51.286;7.518;2023-07-13T08:08:05;18.00;54.40
10057;DHT22;5068;51.286;7.518;2023-07-13T08:09:45;18.10;54.70
10057;DHT22;5068;51.286;7.518;2023-07-13T08:11:18;18.10;53.90
10057;DHT22;5068;51.286;7.518;2023-07-13T08:12:55;18.20;54.00
10057;DHT22;5068;51.286;7.518;2023-07-13T08:14:32;18.20;53.90
10057;DHT22;5068;51.286;7.518;2023-07-13T08:16:24;18.30;53.70
10057;DHT22;5068;51.286;7.518;2023-07-13T08:17:56;18.30;53.80
10057;DHT22;5068;51.286;7.518;2023-07-13T08:19:30;18.40;53.80
10057;DHT22;5068;51.286;7.518;2023-07-13T08:21:04;18.50;53.90
10057;DHT22;5068;51.286;7.518;2023-07-13T08:22:37;18.50;53.70
10057;DHT22;5068;51.286;7.518;2023-07-13T08:24:10;18.50;53.70
10057;DHT22;5068;51.286;7.518;2023-07-13T08:25:51;18.60;53.60
10057;DHT22;5068;51.286;7.518;2023-07-13T08:27:27;18.70;53.30
10057;DHT22;5068;51.286;7.518;2023-07-13T08:29:01;18.70;53.30
10057;DHT22;5068;51.286;7.518;2023-07-13T08:30:35;18.70;53.20
10057;DHT22;5068;51.286;7.518;2023-07-13T08:32:08;18.70;52.90
10057;DHT22;5068;51.286;7.518;2023-07-13T08:33:43;18.80;53.00
10057;DHT22;5068;51.286;7.518;2023-07-13T08:35:15;18.90;52.90
10057;DHT22;5068;51.286;7.518;2023-07-13T08:36:48;18.90;52.90
10057;DHT22;5068;51.286;7.518;2023-07-13T08:38:21;18.90;52.70
10057;DHT22;5068;51.286;7.518;2023-07-13T08:39:54;18.90;52.50
10057;DHT22;5068;51.286;7.518;2023-07-13T08:41:28;18.90;52.60
10057;DHT22;5068;51.286;7.518;2023-07-13T08:43:02;19.00;52.70
10057;DHT22;5068;51.286;7.518;2023-07-13T08:44:42;19.00;52.70
10057;DHT22;5068;51.286;7.518;2023-07-13T08:46:24;19.00;52.70
10057;DHT22;5068;51.286;7.518;2023-07-13T08:48:04;19.00;52.60
10057;DHT22;5068;51.286;7.518;2023-07-13T08:49:42;19.00;52.70
10057;DHT22;5068;51.286;7.518;2023-07-13T08:51:25;19.10;52.70
10057;DHT22;5068;51.286;7.518;2023-07-13T08:53:02;19.10;52.40
10057;DHT22;5068;51.286;7.518;2023-07-13T08:54:38;19.20;52.50
10057;DHT22;5068;51.286;7.518;2023-07-13T08:56:19;19.30;52.60
10057;DHT22;5068;51.286;7.518;2023-07-13T08:58:00;19.30;52.30
10057;DHT22;5068;51.286;7.518;2023-07-13T08:59:36;19.40;52.10
10057;DHT22;5068;51.286;7.518;2023-07-13T09:01:14;19.40;52.20
10057;DHT22;5068;51.286;7.518;2023-07-13T09:02:55;19.50;51.70
10057;DHT22;5068;51.286;7.518;2023-07-13T09:04:33;19.60;51.70
10057;DHT22;5068;51.286;7.518;2023-07-13T09:06:11;19.60;51.50
10057;DHT22;5068;51.286;7.518;2023-07-13T09:08:02;19.60;51.30
10057;DHT22;5068;51.286;7.518;2023-07-13T09:09:58;19.60;51.10
10057;DHT22;5068;51.286;7.518;2023-07-13T09:11:50;19.70;51.60
10057;DHT22;5068;51.286;7.518;2023-07-13T09:13:37;19.80;51.10
10057;DHT22;5068;51.286;7.518;2023-07-13T09:15:32;19.80;50.50
10057;DHT22;5068;51.286;7.518;2023-07-13T09:17:13;19.90;50.50
10057;DHT22;5068;51.286;7.518;2023-07-13T09:18:50;19.90;50.50
10057;DHT22;5068;51.286;7.518;2023-07-13T09:20:31;19.90;50.60
10057;DHT22;5068;51.286;7.518;2023-07-13T09:22:09;20.00;50.60
10057;DHT22;5068;51.286;7.518;2023-07-13T09:23:48;20.00;50.60
10057;DHT22;5068;51.286;7.518;2023-07-13T09:25:30;20.00;50.60
10057;DHT22;5068;51.286;7.518;2023-07-13T09:27:13;20.10;50.50
10057;DHT22;5068;51.286;7.518;2023-07-13T09:28:54;20.10;50.20
10057;DHT22;5068;51.286;7.518;2023-07-13T09:30:36;20.10;50.10
10057;DHT22;5068;51.286;7.518;2023-07-13T09:32:12;20.10;49.90
10057;DHT22;5068;51.286;7.518;2023-07-13T09:33:48;20.20;50.10
10057;DHT22;5068;51.286;7.518;2023-07-13T09:35:28;20.20;50.00
10057;DHT22;5068;51.286;7.518;2023-07-13T09:37:01;20.20;49.60
10057;DHT22;5068;51.286;7.518;2023-07-13T09:38:34;20.20;49.60
10057;DHT22;5068;51.286;7.518;2023-07-13T09:40:11;20.20;49.40
10057;DHT22;5068;51.286;7.518;2023-07-13T09:41:54;20.20;49.00
10057;DHT22;5068;51.286;7.518;2023-07-13T09:43:32;20.10;48.90
10057;DHT22;5068;51.286;7.518;2023-07-13T09:45:07;20.20;49.00
10057;DHT22;5068;51.286;7.518;2023-07-13T09:46:45;20.20;48.90
10057;DHT22;5068;51.286;7.518;2023-07-13T09:48:18;20.10;48.80
10057;DHT22;5068;51.286;7.518;2023-07-13T09:49:56;20.10;48.90
10057;DHT22;5068;51.286;7.518;2023-07-13T09:51:34;20.10;48.80
10057;DHT22;5068;51.286;7.518;2023-07-13T09:53:12;20.10;48.90
10057;DHT22;5068;51.286;7.518;2023-07-13T09:54:49;20.10;48.90
10057;DHT22;5068;51.286;7.518;2023-07-13T09:56:28;20.10;49.00
10057;DHT22;5068;51.286;7.518;2023-07-13T09:58:05;20.10;49.00
10057;DHT22;5068;51.286;7.518;2023-07-13T09:59:46;20.20;49.10
10057;DHT22;5068;51.286;7.518;2023-07-13T10:01:33;20.30;49.10
10057;DHT22;5068;51.286;7.518;2023-07-13T10:03:17;20.30;49.10
10057;DHT22;5068;51.286;7.518;2023-07-13T10:04:56;20.30;49.00
10057;DHT22;5068;51.286;7.518;2023-07-13T10:06:31;20.40;49.10
10057;DHT22;5068;51.286;7.518;2023-07-13T10:08:05;20.40;49.30
10057;DHT22;5068;51.286;7.518;2023-07-13T10:09:38;20.50;49.20